createdAt,value
2017-09-03T00:00:50.493Z,15.8
2017-09-03T00:01:52.896Z,15.8
2017-09-03T00:02:55.297Z,15.8
2017-09-03T00:03:57.705Z,15.8
2017-09-03T00:05:00.108Z,15.8
2017-09-03T00:06:03.204Z,15.8
2017-09-03T00:07:05.602Z,15.8
2017-09-03T00:08:08.004Z,15.8
2017-09-03T00:09:10.405Z,15.8
2017-09-03T00:10:12.813Z,15.9
2017-09-03T00:11:15.213Z,15.9
2017-09-03T00:12:17.951Z,15.9
2017-09-03T00:13:20.365Z,15.8
2017-09-03T00:14:22.762Z,15.8
2017-09-03T00:15:25.164Z,15.9
2017-09-03T00:16:27.559Z,15.8
2017-09-03T00:17:30.303Z,15.9
2017-09-03T00:18:32.708Z,15.9
2017-09-03T00:19:35.113Z,15.9
2017-09-03T00:20:37.524Z,15.9
2017-09-03T00:21:39.920Z,15.9
2017-09-03T00:22:42.328Z,15.9
2017-09-03T00:23:44.741Z,15.9
2017-09-03T00:24:47.143Z,16
2017-09-03T00:25:49.542Z,16
2017-09-03T00:26:51.947Z,15.9
2017-09-03T00:27:54.346Z,15.9
2017-09-03T00:28:56.762Z,16
2017-09-03T00:29:59.161Z,15.9
2017-09-03T00:31:01.900Z,15.9
2017-09-03T00:32:04.304Z,15.9
2017-09-03T00:33:06.708Z,16
2017-09-03T00:34:09.111Z,16
2017-09-03T00:35:11.524Z,16
2017-09-03T00:36:13.921Z,16
2017-09-03T00:37:16.326Z,16
2017-09-03T00:38:18.737Z,16.1
2017-09-03T00:39:21.136Z,16
2017-09-03T00:40:23.540Z,16.1
2017-09-03T00:41:25.948Z,16.1
2017-09-03T00:42:28.349Z,16.1
2017-09-03T00:43:30.756Z,16.1
2017-09-03T00:44:33.161Z,16.2
2017-09-03T00:45:35.561Z,16.2
2017-09-03T00:46:37.956Z,16.2
2017-09-03T00:47:40.357Z,16.2
2017-09-03T00:48:42.772Z,16.2
2017-09-03T00:49:45.173Z,16.2
2017-09-03T00:50:47.575Z,16.3
2017-09-03T00:51:49.977Z,16.2
2017-09-03T00:52:52.381Z,16.2
2017-09-03T00:53:54.789Z,16.3
2017-09-03T00:54:57.189Z,16.3
2017-09-03T00:55:59.577Z,16.3
2017-09-03T00:57:02.322Z,16.3
2017-09-03T00:58:04.728Z,16.3
2017-09-03T00:59:07.139Z,16.3
2017-09-03T01:00:09.876Z,16.3
2017-09-03T01:01:12.267Z,16.3
2017-09-03T01:02:14.668Z,16.4
2017-09-03T01:03:17.079Z,16.4
2017-09-03T01:04:19.492Z,16.4
2017-09-03T01:05:21.888Z,16.4
2017-09-03T01:06:24.291Z,16.4
2017-09-03T01:07:26.694Z,16.4
2017-09-03T01:08:29.103Z,16.4
2017-09-03T01:09:31.508Z,16.5
2017-09-03T01:10:33.906Z,16.5
2017-09-03T01:11:36.310Z,16.5
2017-09-03T01:12:38.719Z,16.5
2017-09-03T01:13:41.136Z,16.5
2017-09-03T01:14:43.536Z,16.5
2017-09-03T01:15:45.939Z,16.6
2017-09-03T01:16:48.344Z,16.6
2017-09-03T01:17:51.079Z,16.6
2017-09-03T01:18:53.478Z,16.6
2017-09-03T01:19:55.885Z,16.6
2017-09-03T01:20:58.280Z,16.7
2017-09-03T01:22:00.694Z,16.7
2017-09-03T01:23:03.097Z,16.7
2017-09-03T01:24:05.501Z,16.7
2017-09-03T01:25:07.905Z,16.7
2017-09-03T01:26:10.313Z,16.7
2017-09-03T01:27:12.710Z,16.7
2017-09-03T01:28:15.123Z,16.8
2017-09-03T01:29:17.525Z,16.8
2017-09-03T01:30:19.930Z,16.8
2017-09-03T01:31:22.329Z,16.7
2017-09-03T01:32:25.405Z,16.7
2017-09-03T01:33:27.807Z,16.7
2017-09-03T01:34:30.222Z,16.7
2017-09-03T01:35:32.618Z,16.7
2017-09-03T01:36:35.033Z,16.7
2017-09-03T01:37:37.436Z,16.7
2017-09-03T01:38:40.182Z,16.7
2017-09-03T01:39:42.583Z,16.7
2017-09-03T01:40:44.990Z,16.7
2017-09-03T01:41:47.389Z,16.7
2017-09-03T01:42:49.790Z,16.7
2017-09-03T01:43:52.194Z,16.7
2017-09-03T01:44:54.595Z,16.8
2017-09-03T01:45:57.008Z,16.8
2017-09-03T01:46:59.412Z,16.8
2017-09-03T01:48:01.811Z,16.7
2017-09-03T01:49:04.207Z,16.7
2017-09-03T01:50:06.612Z,16.7
2017-09-03T01:51:09.021Z,16.7
2017-09-03T01:52:11.429Z,16.7
2017-09-03T01:53:13.827Z,16.7
2017-09-03T01:54:16.232Z,16.7
2017-09-03T01:55:18.645Z,16.7
2017-09-03T01:56:21.051Z,16.7
2017-09-03T01:57:23.456Z,16.7
2017-09-03T01:58:25.860Z,16.7
2017-09-03T01:59:28.259Z,16.7
2017-09-03T02:00:30.670Z,16.7
2017-09-03T02:01:33.076Z,16.7
2017-09-03T02:02:35.478Z,16.8
2017-09-03T02:03:37.879Z,16.7
2017-09-03T02:04:40.289Z,16.7
2017-09-03T02:05:42.698Z,16.8
2017-09-03T02:06:45.105Z,16.8
2017-09-03T02:07:47.498Z,16.8
2017-09-03T02:08:49.905Z,16.8
2017-09-03T02:09:52.317Z,16.8
2017-09-03T02:10:54.722Z,16.8
2017-09-03T02:11:57.466Z,16.8
2017-09-03T02:12:59.863Z,16.8
2017-09-03T02:14:02.268Z,16.8
2017-09-03T02:15:04.675Z,16.8
2017-09-03T02:16:07.073Z,16.8
2017-09-03T02:17:09.485Z,16.9
2017-09-03T02:18:11.885Z,16.9
2017-09-03T02:19:14.276Z,16.9
2017-09-03T02:20:16.689Z,16.8
2017-09-03T02:21:19.087Z,16.9
2017-09-03T02:22:21.834Z,16.9
2017-09-03T02:23:24.237Z,16.9
2017-09-03T02:24:26.634Z,16.9
2017-09-03T02:25:29.042Z,16.9
2017-09-03T02:26:31.794Z,16.9
2017-09-03T02:27:34.192Z,16.9
2017-09-03T02:28:36.597Z,16.9
2017-09-03T02:29:39.344Z,16.9
2017-09-03T02:30:41.741Z,16.9
2017-09-03T02:31:44.153Z,16.9
2017-09-03T02:32:46.558Z,16.9
2017-09-03T02:33:48.957Z,16.9
2017-09-03T02:34:51.710Z,16.8
2017-09-03T02:35:54.444Z,16.8
2017-09-03T02:36:56.848Z,16.9
2017-09-03T02:37:59.590Z,16.8
2017-09-03T02:39:01.988Z,16.8
2017-09-03T02:40:04.393Z,16.9
2017-09-03T02:41:06.810Z,16.8
2017-09-03T02:42:09.211Z,16.9
2017-09-03T02:43:11.609Z,16.8
2017-09-03T02:44:14.012Z,16.9
2017-09-03T02:45:16.426Z,16.9
2017-09-03T02:46:18.828Z,16.9
2017-09-03T02:47:21.232Z,16.9
2017-09-03T02:48:23.636Z,16.9
2017-09-03T02:49:26.726Z,16.9
2017-09-03T02:50:29.139Z,16.9
2017-09-03T02:51:31.542Z,16.9
2017-09-03T02:52:33.944Z,16.9
2017-09-03T02:53:36.351Z,16.9
2017-09-03T02:54:38.749Z,16.9
2017-09-03T02:55:41.154Z,16.9
2017-09-03T02:56:43.563Z,16.9
2017-09-03T02:57:45.961Z,16.9
2017-09-03T02:58:48.365Z,16.9
2017-09-03T02:59:50.781Z,16.9
2017-09-03T03:00:53.183Z,16.9
2017-09-03T03:01:55.588Z,16.8
2017-09-03T03:02:57.986Z,16.8
2017-09-03T03:04:00.385Z,16.8
2017-09-03T03:05:02.801Z,16.8
2017-09-03T03:06:05.210Z,16.8
2017-09-03T03:07:07.602Z,16.8
2017-09-03T03:08:10.010Z,16.8
2017-09-03T03:09:12.409Z,16.7
2017-09-03T03:10:14.819Z,16.7
2017-09-03T03:11:17.226Z,16.7
2017-09-03T03:12:19.628Z,16.7
2017-09-03T03:13:22.033Z,16.7
2017-09-03T03:14:24.431Z,16.6
2017-09-03T03:15:26.840Z,16.6
2017-09-03T03:16:29.597Z,16.5
2017-09-03T03:17:31.995Z,16.5
2017-09-03T03:18:34.398Z,16.5
2017-09-03T03:19:36.806Z,16.5
2017-09-03T03:20:39.210Z,16.5
2017-09-03T03:21:41.613Z,16.5
2017-09-03T03:22:44.015Z,16.5
2017-09-03T03:23:46.407Z,16.4
2017-09-03T03:24:48.812Z,16.4
2017-09-03T03:25:51.213Z,16.4
2017-09-03T03:26:53.615Z,16.4
2017-09-03T03:27:56.029Z,16.4
2017-09-03T03:28:58.434Z,16.4
2017-09-03T03:30:00.843Z,16.4
2017-09-03T03:31:03.252Z,16.3
2017-09-03T03:32:05.648Z,16.3
2017-09-03T03:33:08.054Z,16.3
2017-09-03T03:34:10.459Z,16.3
2017-09-03T03:35:12.862Z,16.3
2017-09-03T03:36:15.264Z,16.3
2017-09-03T03:37:17.669Z,16.3
2017-09-03T03:38:20.054Z,16.3
2017-09-03T03:39:22.463Z,16.3
2017-09-03T03:40:24.868Z,16.3
2017-09-03T03:41:27.269Z,16.2
2017-09-03T03:42:29.680Z,16.2
2017-09-03T03:43:32.080Z,16.2
2017-09-03T03:44:34.487Z,16.1
2017-09-03T03:45:36.885Z,16
2017-09-03T03:46:39.286Z,16
2017-09-03T03:47:41.697Z,15.9
2017-09-03T03:48:44.092Z,15.9
2017-09-03T03:49:46.494Z,15.9
2017-09-03T03:50:48.902Z,15.9
2017-09-03T03:51:51.293Z,15.9
2017-09-03T03:52:53.696Z,15.8
2017-09-03T03:53:56.099Z,15.8
2017-09-03T03:54:58.503Z,15.8
2017-09-03T03:56:00.908Z,15.8
2017-09-03T03:57:03.308Z,15.8
2017-09-03T03:58:05.704Z,15.8
2017-09-03T03:59:08.111Z,15.8
2017-09-03T04:00:10.511Z,15.8
2017-09-03T04:01:12.916Z,15.8
2017-09-03T04:02:15.323Z,15.8
2017-09-03T04:03:17.722Z,15.8
2017-09-03T04:04:20.121Z,15.8
2017-09-03T04:05:22.529Z,15.8
2017-09-03T04:06:24.915Z,15.8
2017-09-03T04:07:27.316Z,15.8
2017-09-03T04:08:29.718Z,15.8
2017-09-03T04:09:32.116Z,15.8
2017-09-03T04:10:34.519Z,15.7
2017-09-03T04:11:36.924Z,15.7
2017-09-03T04:12:39.327Z,15.7
2017-09-03T04:13:41.734Z,15.7
2017-09-03T04:14:44.470Z,15.7
2017-09-03T04:15:46.877Z,15.7
2017-09-03T04:16:49.280Z,15.7
2017-09-03T04:17:51.681Z,15.7
2017-09-03T04:18:54.087Z,15.7
2017-09-03T04:19:56.494Z,15.7
2017-09-03T04:20:58.893Z,15.7
2017-09-03T04:22:01.302Z,15.6
2017-09-03T04:23:03.697Z,15.7
2017-09-03T04:24:06.100Z,15.7
2017-09-03T04:25:08.514Z,15.6
2017-09-03T04:26:10.917Z,15.6
2017-09-03T04:27:13.319Z,15.6
2017-09-03T04:28:15.722Z,15.6
2017-09-03T04:29:18.118Z,15.5
2017-09-03T04:30:20.532Z,15.5
2017-09-03T04:31:23.273Z,15.5
2017-09-03T04:32:25.673Z,15.5
2017-09-03T04:33:28.077Z,15.5
2017-09-03T04:34:30.479Z,15.5
2017-09-03T04:35:32.876Z,15.5
2017-09-03T04:36:35.278Z,15.5
2017-09-03T04:37:38.014Z,15.4
2017-09-03T04:38:40.416Z,15.5
2017-09-03T04:39:42.829Z,15.4
2017-09-03T04:40:45.229Z,15.5
2017-09-03T04:41:47.621Z,15.4
2017-09-03T04:42:50.357Z,15.5
2017-09-03T04:43:52.758Z,15.5
2017-09-03T04:44:55.166Z,15.5
2017-09-03T04:45:57.564Z,15.4
2017-09-03T04:46:59.981Z,15.5
2017-09-03T04:48:02.375Z,15.4
2017-09-03T04:49:04.806Z,15.4
2017-09-03T04:50:07.231Z,15.4
2017-09-03T04:51:09.662Z,15.4
2017-09-03T04:52:12.087Z,15.4
2017-09-03T04:53:14.519Z,15.3
2017-09-03T04:54:16.945Z,15.4
2017-09-03T04:55:19.366Z,15.3
2017-09-03T04:56:21.800Z,15.3
2017-09-03T04:57:24.237Z,15.4
2017-09-03T04:58:26.674Z,15.3
2017-09-03T04:59:29.106Z,15.3
2017-09-03T05:00:31.876Z,15.4
2017-09-03T05:01:34.317Z,15.4
2017-09-03T05:02:36.755Z,15.4
2017-09-03T05:03:39.196Z,15.4
2017-09-03T05:04:41.626Z,15.4
2017-09-03T05:05:44.063Z,15.4
2017-09-03T05:06:46.494Z,15.5
2017-09-03T05:07:48.922Z,15.5
2017-09-03T05:08:51.350Z,15.5
2017-09-03T05:09:53.779Z,15.5
2017-09-03T05:10:56.199Z,15.5
2017-09-03T05:11:58.625Z,15.5
2017-09-03T05:13:01.057Z,15.5
2017-09-03T05:14:03.484Z,15.5
2017-09-03T05:15:05.920Z,15.5
2017-09-03T05:16:08.361Z,15.5
2017-09-03T05:17:10.789Z,15.5
2017-09-03T05:18:13.555Z,15.5
2017-09-03T05:19:15.988Z,15.5
2017-09-03T05:20:18.409Z,15.5
2017-09-03T05:21:20.843Z,15.5
2017-09-03T05:22:23.275Z,15.4
2017-09-03T05:23:26.083Z,15.4
2017-09-03T05:24:28.505Z,15.4
2017-09-03T05:25:30.940Z,15.4
2017-09-03T05:26:33.368Z,15.4
2017-09-03T05:27:35.799Z,15.4
2017-09-03T05:28:38.220Z,15.4
2017-09-03T05:29:40.644Z,15.4
2017-09-03T05:30:43.085Z,15.4
2017-09-03T05:31:45.520Z,15.4
2017-09-03T05:32:47.948Z,15.4
2017-09-03T05:33:50.375Z,15.4
2017-09-03T05:34:53.166Z,15.4
2017-09-03T05:35:55.589Z,15.4
2017-09-03T05:36:58.026Z,15.4
2017-09-03T05:38:00.455Z,15.4
2017-09-03T05:39:02.878Z,15.4
2017-09-03T05:40:05.318Z,15.5
2017-09-03T05:41:07.738Z,15.5
2017-09-03T05:42:10.169Z,15.4
2017-09-03T05:43:12.598Z,15.5
2017-09-03T05:44:15.028Z,15.5
2017-09-03T05:45:17.456Z,15.5
2017-09-03T05:46:19.886Z,15.5
2017-09-03T05:47:22.306Z,15.6
2017-09-03T05:48:24.737Z,15.6
2017-09-03T05:49:27.172Z,15.6
2017-09-03T05:50:29.595Z,15.7
2017-09-03T05:51:32.018Z,15.8
2017-09-03T05:52:34.444Z,15.8
2017-09-03T05:53:36.863Z,15.9
2017-09-03T05:54:39.637Z,15.9
2017-09-03T05:55:42.050Z,16
2017-09-03T05:56:44.478Z,16.1
2017-09-03T05:57:46.911Z,16.1
2017-09-03T05:58:49.340Z,16.2
2017-09-03T05:59:51.776Z,16.2
2017-09-03T06:00:54.549Z,16.2
2017-09-03T06:01:57.313Z,16.3
2017-09-03T06:02:59.757Z,16.3
2017-09-03T06:04:02.185Z,16.3
2017-09-03T06:05:04.608Z,16.4
2017-09-03T06:06:07.037Z,16.4
2017-09-03T06:07:09.462Z,16.5
2017-09-03T06:08:11.889Z,16.5
2017-09-03T06:09:14.676Z,16.6
2017-09-03T06:10:17.459Z,16.6
2017-09-03T06:11:19.886Z,16.7
2017-09-03T06:12:22.312Z,16.7
2017-09-03T06:13:24.734Z,16.8
2017-09-03T06:14:27.174Z,16.9
2017-09-03T06:15:29.608Z,16.9
2017-09-03T06:16:32.044Z,16.9
2017-09-03T06:17:34.455Z,16.9
2017-09-03T06:18:36.889Z,17
2017-09-03T06:19:39.664Z,17
2017-09-03T06:20:42.093Z,17.1
2017-09-03T06:21:44.528Z,17.1
2017-09-03T06:22:46.960Z,17.2
2017-09-03T06:23:49.396Z,17.2
2017-09-03T06:24:51.839Z,17.2
2017-09-03T06:25:54.275Z,17.3
2017-09-03T06:26:56.701Z,17.3
2017-09-03T06:27:59.133Z,17.3
2017-09-03T06:29:01.583Z,17.3
2017-09-03T06:30:04.354Z,17.4
2017-09-03T06:31:06.793Z,17.4
2017-09-03T06:32:09.237Z,17.4
2017-09-03T06:33:11.673Z,17.5
2017-09-03T06:34:14.107Z,17.5
2017-09-03T06:35:16.898Z,17.5
2017-09-03T06:36:19.320Z,17.6
2017-09-03T06:37:21.758Z,17.6
2017-09-03T06:38:24.194Z,17.6
2017-09-03T06:39:26.619Z,17.7
2017-09-03T06:40:29.049Z,17.7
2017-09-03T06:41:31.492Z,17.8
2017-09-03T06:42:33.928Z,17.8
2017-09-03T06:43:36.373Z,17.8
2017-09-03T06:44:39.150Z,17.9
2017-09-03T06:45:41.587Z,17.9
2017-09-03T06:46:44.020Z,17.9
2017-09-03T06:47:46.450Z,18
2017-09-03T06:48:48.875Z,18.1
2017-09-03T06:49:51.301Z,18.1
2017-09-03T06:50:53.746Z,18.1
2017-09-03T06:51:56.177Z,18.2
2017-09-03T06:52:58.591Z,18.3
2017-09-03T06:54:01.032Z,18.3
2017-09-03T06:55:03.465Z,18.4
2017-09-03T06:56:06.239Z,18.4
2017-09-03T06:57:08.674Z,18.4
2017-09-03T06:58:11.106Z,18.5
2017-09-03T06:59:13.536Z,18.6
2017-09-03T07:00:15.969Z,18.6
2017-09-03T07:01:18.405Z,18.7
2017-09-03T07:02:20.833Z,18.8
2017-09-03T07:03:23.612Z,18.9
2017-09-03T07:04:26.054Z,18.9
2017-09-03T07:05:28.498Z,19
2017-09-03T07:06:30.932Z,19
2017-09-03T07:07:33.359Z,19.1
2017-09-03T07:08:35.796Z,19.2
2017-09-03T07:09:38.242Z,19.3
2017-09-03T07:10:40.681Z,19.3
2017-09-03T07:11:43.111Z,19.3
2017-09-03T07:12:45.550Z,19.4
2017-09-03T07:13:47.983Z,19.4
2017-09-03T07:14:50.403Z,19.5
2017-09-03T07:15:52.846Z,19.5
2017-09-03T07:16:55.260Z,19.6
2017-09-03T07:17:57.707Z,19.6
2017-09-03T07:19:00.143Z,19.7
2017-09-03T07:20:02.576Z,19.7
2017-09-03T07:21:05.008Z,19.8
2017-09-03T07:22:07.442Z,19.8
2017-09-03T07:23:09.870Z,19.9
2017-09-03T07:24:12.308Z,19.9
2017-09-03T07:25:14.732Z,20
2017-09-03T07:26:17.161Z,20.1
2017-09-03T07:27:19.586Z,20.1
2017-09-03T07:28:22.026Z,20.2
2017-09-03T07:29:24.456Z,20.2
2017-09-03T07:30:26.892Z,20.2
2017-09-03T07:31:29.320Z,20.3
2017-09-03T07:32:31.748Z,20.3
2017-09-03T07:33:34.182Z,20.4
2017-09-03T07:34:36.954Z,20.4
2017-09-03T07:35:39.376Z,20.5
2017-09-03T07:36:41.810Z,20.5
2017-09-03T07:37:44.245Z,20.6
2017-09-03T07:38:46.670Z,20.6
2017-09-03T07:39:49.101Z,20.6
2017-09-03T07:40:51.539Z,20.7
2017-09-03T07:41:53.974Z,20.7
2017-09-03T07:42:56.399Z,20.7
2017-09-03T07:43:58.834Z,20.8
2017-09-03T07:45:01.268Z,20.8
2017-09-03T07:46:03.691Z,20.8
2017-09-03T07:47:06.121Z,20.9
2017-09-03T07:48:08.554Z,20.9
2017-09-03T07:49:10.984Z,20.9
2017-09-03T07:50:13.422Z,21
2017-09-03T07:51:15.850Z,21
2017-09-03T07:52:18.270Z,21.1
2017-09-03T07:53:20.742Z,21.1
2017-09-03T07:54:23.177Z,21.2
2017-09-03T07:55:25.611Z,21.2
2017-09-03T07:56:28.045Z,21.2
2017-09-03T07:57:30.468Z,21.3
2017-09-03T07:58:32.903Z,21.3
2017-09-03T07:59:35.346Z,21.3
2017-09-03T08:00:37.773Z,21.4
2017-09-03T08:01:40.204Z,21.4
2017-09-03T08:02:42.633Z,21.5
2017-09-03T08:03:45.063Z,21.5
2017-09-03T08:04:47.504Z,21.6
2017-09-03T08:05:49.941Z,21.6
2017-09-03T08:06:52.362Z,21.7
2017-09-03T08:07:54.794Z,21.8
2017-09-03T08:08:57.227Z,21.8
2017-09-03T08:09:59.655Z,21.9
2017-09-03T08:11:02.093Z,21.9
2017-09-03T08:12:04.899Z,22
2017-09-03T08:13:07.330Z,22.1
2017-09-03T08:14:09.758Z,22.2
2017-09-03T08:15:12.204Z,22.3
2017-09-03T08:16:14.633Z,22.4
2017-09-03T08:17:17.073Z,22.4
2017-09-03T08:18:19.505Z,22.5
2017-09-03T08:19:22.282Z,22.6
2017-09-03T08:20:24.715Z,22.6
2017-09-03T08:21:27.152Z,22.7
2017-09-03T08:22:29.581Z,22.7
2017-09-03T08:23:32.017Z,22.8
2017-09-03T08:24:34.448Z,22.9
2017-09-03T08:25:36.888Z,23
2017-09-03T08:26:39.318Z,23.1
2017-09-03T08:27:41.747Z,23.2
2017-09-03T08:28:44.177Z,23.3
2017-09-03T08:29:46.622Z,23.4
2017-09-03T08:30:49.053Z,23.6
2017-09-03T08:31:51.488Z,23.7
2017-09-03T08:32:53.922Z,23.8
2017-09-03T08:33:56.355Z,24
2017-09-03T08:34:58.788Z,24.1
2017-09-03T08:36:01.225Z,24.3
2017-09-03T08:37:03.662Z,24.3
2017-09-03T08:38:06.104Z,24.5
2017-09-03T08:39:08.544Z,24.6
2017-09-03T08:40:10.986Z,24.7
2017-09-03T08:41:13.415Z,24.8
2017-09-03T08:42:15.855Z,25
2017-09-03T08:43:18.625Z,25.1
2017-09-03T08:44:21.068Z,25.3
2017-09-03T08:45:23.499Z,25.5
2017-09-03T08:46:25.937Z,25.7
2017-09-03T08:47:28.373Z,25.8
2017-09-03T08:48:30.815Z,26
2017-09-03T08:49:33.258Z,26.2
2017-09-03T08:50:35.699Z,26.3
2017-09-03T08:51:38.127Z,26.4
2017-09-03T08:52:40.568Z,26.4
2017-09-03T08:53:43.004Z,26.4
2017-09-03T08:54:45.452Z,26.5
2017-09-03T08:55:47.884Z,26.7
2017-09-03T08:56:50.324Z,26.8
2017-09-03T08:57:52.759Z,27
2017-09-03T08:58:55.208Z,27.3
2017-09-03T08:59:57.653Z,27.4
2017-09-03T09:01:00.098Z,27.7
2017-09-03T09:02:02.536Z,27.9
2017-09-03T09:03:04.981Z,28
2017-09-03T09:04:07.760Z,28.2
2017-09-03T09:05:10.208Z,28.4
2017-09-03T09:06:12.638Z,28.6
2017-09-03T09:07:15.079Z,28.8
2017-09-03T09:08:17.533Z,28.9
2017-09-03T09:09:20.005Z,29.1
2017-09-03T09:10:22.451Z,29.3
2017-09-03T09:11:24.901Z,29.5
2017-09-03T09:12:27.343Z,29.6
2017-09-03T09:13:29.787Z,29.8
2017-09-03T09:14:32.237Z,30
2017-09-03T09:15:34.670Z,30.1
2017-09-03T09:16:37.113Z,30.3
2017-09-03T09:17:39.562Z,30.4
2017-09-03T09:18:42.355Z,30.6
2017-09-03T09:19:44.813Z,30.8
2017-09-03T09:20:47.248Z,30.9
2017-09-03T09:21:49.695Z,31.1
2017-09-03T09:22:52.151Z,31.2
2017-09-03T09:23:54.600Z,31.4
2017-09-03T09:24:57.051Z,31.5
2017-09-03T09:25:59.496Z,31.6
2017-09-03T09:27:01.941Z,31.7
2017-09-03T09:28:04.388Z,31.8
2017-09-03T09:29:06.849Z,31.9
2017-09-03T09:30:09.285Z,32
2017-09-03T09:31:11.725Z,32.1
2017-09-03T09:32:14.176Z,32.3
2017-09-03T09:33:16.972Z,32.4
2017-09-03T09:34:19.416Z,32.5
2017-09-03T09:35:21.862Z,32.6
2017-09-03T09:36:24.315Z,32.7
2017-09-03T09:37:26.764Z,32.8
2017-09-03T09:38:29.208Z,32.8
2017-09-03T09:39:31.652Z,32.8
2017-09-03T09:40:34.095Z,32.8
2017-09-03T09:41:36.555Z,32.9
2017-09-03T09:42:39.007Z,32.9
2017-09-03T09:43:41.458Z,33
2017-09-03T09:44:43.906Z,33
2017-09-03T09:45:46.355Z,33.1
2017-09-03T09:46:48.803Z,33.1
2017-09-03T09:47:51.252Z,33.1
2017-09-03T09:48:53.702Z,33.1
2017-09-03T09:49:56.153Z,33.1
2017-09-03T09:50:58.608Z,33.1
2017-09-03T09:52:01.050Z,33.1
2017-09-03T09:53:03.495Z,33.2
2017-09-03T09:54:05.948Z,33.3
2017-09-03T09:55:08.391Z,33.4
2017-09-03T09:56:10.851Z,33.4
2017-09-03T09:57:13.307Z,33.4
2017-09-03T09:58:15.754Z,33.3
2017-09-03T09:59:18.200Z,33.3
2017-09-03T10:00:20.653Z,33.1
2017-09-03T10:01:23.101Z,33
2017-09-03T10:02:25.551Z,32.8
2017-09-03T10:03:27.992Z,32.6
2017-09-03T10:04:30.451Z,32.4
2017-09-03T10:05:32.941Z,32.2
2017-09-03T10:06:35.389Z,32.1
2017-09-03T10:07:37.829Z,31.9
2017-09-03T10:08:40.272Z,31.7
2017-09-03T10:09:42.720Z,31.6
2017-09-03T10:10:45.166Z,31.4
2017-09-03T10:11:47.611Z,31.3
2017-09-03T10:12:50.065Z,31
2017-09-03T10:13:52.507Z,30.8
2017-09-03T10:14:54.948Z,30.6
2017-09-03T10:15:57.397Z,30.4
2017-09-03T10:16:59.839Z,30.2
2017-09-03T10:18:02.281Z,30
2017-09-03T10:19:04.727Z,29.8
2017-09-03T10:20:07.163Z,29.6
2017-09-03T10:21:09.607Z,29.5
2017-09-03T10:22:12.052Z,29.3
2017-09-03T10:23:14.504Z,29.1
2017-09-03T10:24:16.947Z,29
2017-09-03T10:25:19.383Z,28.8
2017-09-03T10:26:21.824Z,28.7
2017-09-03T10:27:24.277Z,28.6
2017-09-03T10:28:26.709Z,28.5
2017-09-03T10:29:29.149Z,28.5
2017-09-03T10:30:31.595Z,28.6
2017-09-03T10:31:34.041Z,28.7
2017-09-03T10:32:36.486Z,28.8
2017-09-03T10:33:38.925Z,29
2017-09-03T10:34:41.358Z,29.1
2017-09-03T10:35:43.805Z,29.2
2017-09-03T10:36:46.257Z,29.4
2017-09-03T10:37:48.701Z,29.5
2017-09-03T10:38:51.133Z,29.6
2017-09-03T10:39:53.573Z,29.7
2017-09-03T10:40:56.022Z,29.8
2017-09-03T10:41:58.468Z,29.9
2017-09-03T10:43:00.910Z,29.9
2017-09-03T10:44:03.353Z,30
2017-09-03T10:45:05.791Z,30
2017-09-03T10:46:08.245Z,30
2017-09-03T10:47:10.690Z,30
2017-09-03T10:48:13.124Z,30
2017-09-03T10:49:15.570Z,30
2017-09-03T10:50:18.008Z,30.2
2017-09-03T10:51:20.460Z,30.3
2017-09-03T10:52:23.241Z,30.5
2017-09-03T10:53:25.683Z,30.6
2017-09-03T10:54:28.118Z,30.8
2017-09-03T10:55:30.577Z,30.8
2017-09-03T10:56:33.024Z,30.9
2017-09-03T10:57:37.414Z,30.8
2017-09-03T10:58:41.181Z,30.8
2017-09-03T10:59:43.640Z,30.7
2017-09-03T11:00:46.450Z,30.6
2017-09-03T11:01:49.361Z,30.5
2017-09-03T11:02:51.819Z,30.3
2017-09-03T11:03:54.274Z,30.2
2017-09-03T11:04:56.727Z,30.1
2017-09-03T11:05:59.194Z,30
2017-09-03T11:07:02.371Z,29.8
2017-09-03T11:08:04.973Z,29.7
2017-09-03T11:09:07.417Z,29.6
2017-09-03T11:10:09.869Z,29.4
2017-09-03T11:11:12.316Z,29.3
2017-09-03T11:12:14.774Z,29.2
2017-09-03T11:13:17.211Z,29
2017-09-03T11:14:20.003Z,28.9
2017-09-03T11:15:22.436Z,28.8
2017-09-03T11:16:24.883Z,28.8
2017-09-03T11:17:27.334Z,28.9
2017-09-03T11:18:29.785Z,29
2017-09-03T11:19:32.224Z,29.2
2017-09-03T11:20:34.669Z,29.4
2017-09-03T11:21:37.131Z,29.6
2017-09-03T11:22:39.920Z,29.7
2017-09-03T11:23:42.366Z,29.9
2017-09-03T11:24:44.816Z,30.1
2017-09-03T11:25:47.271Z,30.3
2017-09-03T11:26:49.727Z,30.5
2017-09-03T11:27:52.510Z,30.6
2017-09-03T11:28:54.961Z,30.8
2017-09-03T11:29:57.422Z,30.9
2017-09-03T11:30:59.885Z,31
2017-09-03T11:32:02.359Z,31
2017-09-03T11:33:04.807Z,30.9
2017-09-03T11:34:07.261Z,30.9
2017-09-03T11:35:09.728Z,30.8
2017-09-03T11:36:12.175Z,30.7
2017-09-03T11:37:14.616Z,30.5
2017-09-03T11:38:17.071Z,30.4
2017-09-03T11:39:19.512Z,30.3
2017-09-03T11:40:21.959Z,30.2
2017-09-03T11:41:24.421Z,30.1
2017-09-03T11:42:26.860Z,30
2017-09-03T11:43:29.330Z,29.9
2017-09-03T11:44:31.789Z,29.8
2017-09-03T11:45:34.246Z,29.7
2017-09-03T11:46:36.696Z,29.5
2017-09-03T11:47:39.140Z,29.4
2017-09-03T11:48:41.590Z,29.3
2017-09-03T11:49:44.041Z,29.2
2017-09-03T11:50:46.489Z,29.3
2017-09-03T11:51:48.943Z,29.4
2017-09-03T11:52:51.389Z,29.5
2017-09-03T11:53:53.860Z,29.7
2017-09-03T11:54:56.293Z,29.8
2017-09-03T11:55:58.758Z,30
2017-09-03T11:57:01.203Z,30.1
2017-09-03T11:58:03.644Z,30.2
2017-09-03T11:59:06.097Z,30.4
2017-09-03T12:00:08.541Z,30.5
2017-09-03T12:01:10.987Z,30.7
2017-09-03T12:02:13.438Z,30.8
2017-09-03T12:03:15.886Z,30.9
2017-09-03T12:04:18.344Z,31.1
2017-09-03T12:05:20.793Z,31.2
2017-09-03T12:06:23.241Z,31.3
2017-09-03T12:07:25.698Z,31.4
2017-09-03T12:08:28.149Z,31.5
2017-09-03T12:09:30.958Z,31.6
2017-09-03T12:10:33.407Z,31.6
2017-09-03T12:11:35.855Z,31.7
2017-09-03T12:12:38.305Z,31.6
2017-09-03T12:13:40.752Z,31.7
2017-09-03T12:14:43.223Z,31.7
2017-09-03T12:15:45.667Z,31.7
2017-09-03T12:16:48.111Z,31.7
2017-09-03T12:17:50.570Z,31.8
2017-09-03T12:18:53.033Z,31.9
2017-09-03T12:19:55.489Z,32
2017-09-03T12:20:57.949Z,32.1
2017-09-03T12:22:00.408Z,32.1
2017-09-03T12:23:02.865Z,32.3
2017-09-03T12:24:05.655Z,32.4
2017-09-03T12:25:08.109Z,32.5
2017-09-03T12:26:10.551Z,32.6
2017-09-03T12:27:13.006Z,32.6
2017-09-03T12:28:15.800Z,32.6
2017-09-03T12:29:18.253Z,32.6
2017-09-03T12:30:20.722Z,32.6
2017-09-03T12:31:23.164Z,32.5
2017-09-03T12:32:25.953Z,32.3
2017-09-03T12:33:28.410Z,32.3
2017-09-03T12:34:30.860Z,32.3
2017-09-03T12:35:33.302Z,32.3
2017-09-03T12:36:35.761Z,32.3
2017-09-03T12:37:38.219Z,32.4
2017-09-03T12:38:40.664Z,32.4
2017-09-03T12:39:43.113Z,32.5
2017-09-03T12:40:45.560Z,32.6
2017-09-03T12:41:48.008Z,32.7
2017-09-03T12:42:50.466Z,32.7
2017-09-03T12:43:52.914Z,32.8
2017-09-03T12:44:55.365Z,32.9
2017-09-03T12:45:57.817Z,32.9
2017-09-03T12:47:00.277Z,32.9
2017-09-03T12:48:02.722Z,32.9
2017-09-03T12:49:05.584Z,32.9
2017-09-03T12:50:08.031Z,32.9
2017-09-03T12:51:10.474Z,33
2017-09-03T12:52:12.941Z,33.1
2017-09-03T12:53:15.392Z,33.1
2017-09-03T12:54:17.857Z,33.2
2017-09-03T12:55:20.310Z,33.3
2017-09-03T12:56:22.765Z,33.4
2017-09-03T12:57:25.217Z,33.4
2017-09-03T12:58:27.670Z,33.5
2017-09-03T12:59:30.113Z,33.6
2017-09-03T13:00:32.576Z,33.6
2017-09-03T13:01:35.080Z,33.7
2017-09-03T13:02:37.554Z,33.8
2017-09-03T13:03:40.064Z,33.9
2017-09-03T13:04:42.596Z,34
2017-09-03T13:05:45.044Z,34
2017-09-03T13:06:47.492Z,33.9
2017-09-03T13:07:49.967Z,33.8
2017-09-03T13:08:52.424Z,33.7
2017-09-03T13:09:54.880Z,33.6
2017-09-03T13:10:57.323Z,33.6
2017-09-03T13:11:59.769Z,33.5
2017-09-03T13:13:02.221Z,33.5
2017-09-03T13:14:04.734Z,33.4
2017-09-03T13:15:07.183Z,33.4
2017-09-03T13:16:09.635Z,33.3
2017-09-03T13:17:12.078Z,33.2
2017-09-03T13:18:14.556Z,33.1
2017-09-03T13:19:17.361Z,32.9
2017-09-03T13:20:19.812Z,32.8
2017-09-03T13:21:22.282Z,32.7
2017-09-03T13:22:24.756Z,32.5
2017-09-03T13:23:27.545Z,32.4
2017-09-03T13:24:30.003Z,32.2
2017-09-03T13:25:32.436Z,32.1
2017-09-03T13:26:34.894Z,31.9
2017-09-03T13:27:37.347Z,31.8
2017-09-03T13:28:39.794Z,31.6
2017-09-03T13:29:42.244Z,31.5
2017-09-03T13:30:44.742Z,31.4
2017-09-03T13:31:47.183Z,31.2
2017-09-03T13:32:49.646Z,31
2017-09-03T13:33:52.094Z,30.9
2017-09-03T13:34:54.536Z,30.8
2017-09-03T13:35:56.999Z,30.6
2017-09-03T13:36:59.448Z,30.4
2017-09-03T13:38:02.252Z,30.4
2017-09-03T13:39:04.706Z,30.2
2017-09-03T13:40:07.513Z,30
2017-09-03T13:41:10.004Z,29.8
2017-09-03T13:42:12.437Z,29.7
2017-09-03T13:43:14.885Z,29.5
2017-09-03T13:44:17.340Z,29.5
2017-09-03T13:45:19.798Z,29.5
2017-09-03T13:46:22.249Z,29.5
2017-09-03T13:47:24.707Z,29.6
2017-09-03T13:48:27.151Z,29.7
2017-09-03T13:49:29.604Z,29.9
2017-09-03T13:50:32.072Z,30
2017-09-03T13:51:34.507Z,30.1
2017-09-03T13:52:36.945Z,30.1
2017-09-03T13:53:39.390Z,30
2017-09-03T13:54:41.838Z,30
2017-09-03T13:55:44.282Z,29.9